createdAt,value
2019-02-20T00:02:55.346Z,99.90
2019-02-20T00:08:01.541Z,99.90
2019-02-20T00:13:07.608Z,99.90
2019-02-20T00:18:13.777Z,99.90
2019-02-20T00:23:19.956Z,99.90
2019-02-20T00:28:26.084Z,99.90
2019-02-20T00:33:32.136Z,99.90
2019-02-20T00:38:38.313Z,99.90
2019-02-20T00:43:47.199Z,99.90
2019-02-20T00:49:04.207Z,99.90
2019-02-20T00:54:10.254Z,99.90
2019-02-20T00:59:16.930Z,99.90
2019-02-20T01:04:23.133Z,99.90
2019-02-20T01:09:29.189Z,99.90
2019-02-20T01:14:35.331Z,99.90
2019-02-20T01:19:41.514Z,99.90
2019-02-20T01:24:47.706Z,99.90
2019-02-20T01:29:53.882Z,99.90
2019-02-20T01:35:00.160Z,99.90
2019-02-20T01:40:06.593Z,99.90
2019-02-20T01:45:12.834Z,99.90
2019-02-20T01:50:18.887Z,99.90
2019-02-20T01:55:24.992Z,99.90
2019-02-20T02:00:31.140Z,99.90
2019-02-20T02:05:37.314Z,99.90
2019-02-20T02:10:43.392Z,99.90
2019-02-20T02:15:49.584Z,99.90
2019-02-20T02:20:55.758Z,99.90
2019-02-20T02:26:10.472Z,99.90
2019-02-20T02:31:09.561Z,99.90
2019-02-20T02:36:15.719Z,99.90
2019-02-20T02:41:21.914Z,99.90
2019-02-20T02:46:27.965Z,99.90
2019-02-20T02:51:35.080Z,99.90
2019-02-20T02:56:41.190Z,99.90
2019-02-20T03:01:47.465Z,99.90
2019-02-20T03:06:53.598Z,99.90
2019-02-20T03:11:59.673Z,99.90
2019-02-20T03:17:05.855Z,99.90
2019-02-20T03:22:12.036Z,99.90
2019-02-20T03:27:18.122Z,99.90
2019-02-20T03:32:24.191Z,99.90
2019-02-20T03:37:30.345Z,99.90
2019-02-20T03:42:36.316Z,99.90
2019-02-20T03:47:42.446Z,99.90
2019-02-20T03:52:48.526Z,99.90
2019-02-20T03:57:54.636Z,99.90
2019-02-20T04:03:00.821Z,99.90
2019-02-20T04:08:06.934Z,99.90
2019-02-20T04:13:13.032Z,99.90
2019-02-20T04:18:19.192Z,99.90
2019-02-20T04:23:25.368Z,99.90
2019-02-20T04:28:31.558Z,99.90
2019-02-20T04:33:37.580Z,99.90
2019-02-20T04:38:43.764Z,99.90
2019-02-20T04:43:49.929Z,99.90
2019-02-20T04:48:56.009Z,99.90
2019-02-20T04:54:02.090Z,99.90
2019-02-20T04:59:08.281Z,99.90
2019-02-20T05:04:14.349Z,99.90
2019-02-20T05:09:20.339Z,99.90
2019-02-20T05:14:26.587Z,99.90
2019-02-20T05:19:32.795Z,99.90
2019-02-20T05:24:38.853Z,99.90
2019-02-20T05:29:44.912Z,99.90
2019-02-20T05:34:51.097Z,99.90
2019-02-20T05:39:57.179Z,99.90
2019-02-20T05:45:03.271Z,99.90
2019-02-20T05:50:09.609Z,99.90
2019-02-20T05:55:15.722Z,99.90
2019-02-20T06:00:21.811Z,99.90
2019-02-20T06:05:27.850Z,99.90
2019-02-20T06:10:34.023Z,99.90
2019-02-20T06:15:40.128Z,99.90
2019-02-20T06:20:46.163Z,99.90
2019-02-20T06:25:52.376Z,99.90
2019-02-20T06:30:59.451Z,99.90
2019-02-20T06:36:06.576Z,99.90
2019-02-20T06:41:12.623Z,99.90
2019-02-20T06:46:18.803Z,99.90
2019-02-20T06:51:24.988Z,99.90
2019-02-20T06:56:30.969Z,99.90
2019-02-20T07:01:37.048Z,99.90
2019-02-20T07:07:17.105Z,99.90
2019-02-20T07:12:40.082Z,99.90
2019-02-20T07:18:11.987Z,99.90
2019-02-20T07:23:46.395Z,99.90
2019-02-20T07:29:27.932Z,99.90
2019-02-20T07:34:33.970Z,99.90
2019-02-20T07:39:40.257Z,99.70
2019-02-20T07:44:46.444Z,99.60
2019-02-20T07:49:52.543Z,99.90
2019-02-20T07:54:58.593Z,99.60
2019-02-20T08:00:05.154Z,99.10
2019-02-20T08:05:11.963Z,99.10
2019-02-20T08:10:18.047Z,98.70
2019-02-20T08:15:25.281Z,98.20
2019-02-20T08:20:50.526Z,98.70
2019-02-20T08:25:56.695Z,97.30
2019-02-20T08:31:02.732Z,97.40
2019-02-20T08:36:08.798Z,97.30
2019-02-20T08:41:14.964Z,97.50
2019-02-20T08:46:21.034Z,97.00
2019-02-20T08:51:27.128Z,96.80
2019-02-20T08:56:33.289Z,96.50
2019-02-20T09:01:39.515Z,95.90
2019-02-20T09:06:45.771Z,96.20
2019-02-20T09:11:52.062Z,96.50
2019-02-20T09:16:58.115Z,95.30
2019-02-20T09:22:04.512Z,95.80
2019-02-20T09:27:10.679Z,96.20
2019-02-20T09:32:16.832Z,96.10
2019-02-20T09:37:23.011Z,94.40
2019-02-20T09:42:29.149Z,95.10
2019-02-20T09:47:35.385Z,95.00
2019-02-20T09:52:41.561Z,94.70
2019-02-20T09:57:47.722Z,94.80
2019-02-20T10:02:53.929Z,94.30
2019-02-20T10:08:00.033Z,94.20
2019-02-20T10:13:06.541Z,93.90
2019-02-20T10:18:12.793Z,94.30
2019-02-20T10:23:18.931Z,93.50
2019-02-20T10:28:25.008Z,93.60
2019-02-20T10:33:31.171Z,92.70
2019-02-20T10:38:37.218Z,91.20
2019-02-20T10:43:43.358Z,90.70
2019-02-20T10:48:49.385Z,89.80
2019-02-20T10:53:55.564Z,91.00
2019-02-20T10:59:01.646Z,87.60
2019-02-20T11:04:07.710Z,80.20
2019-02-20T11:09:13.846Z,75.00
2019-02-20T11:14:20.077Z,78.20
2019-02-20T11:19:27.145Z,83.20
2019-02-20T11:24:33.249Z,84.50
2019-02-20T11:29:39.412Z,85.10
2019-02-20T11:34:45.501Z,88.70
2019-02-20T11:39:51.622Z,88.80
2019-02-20T11:44:57.726Z,86.50
2019-02-20T11:50:03.940Z,86.30
2019-02-20T11:55:10.016Z,87.60
2019-02-20T12:00:16.157Z,86.10
2019-02-20T12:05:22.335Z,85.50
2019-02-20T12:10:28.724Z,86.30
2019-02-20T12:15:34.956Z,86.20
2019-02-20T12:20:41.063Z,86.40
2019-02-20T12:25:47.236Z,87.40
2019-02-20T12:30:53.317Z,87.00
2019-02-20T12:35:59.325Z,86.00
2019-02-20T12:41:06.494Z,87.30
2019-02-20T12:46:12.836Z,86.30
2019-02-20T12:51:18.945Z,83.40
2019-02-20T12:56:25.151Z,83.50
2019-02-20T13:01:31.141Z,83.00
2019-02-20T13:06:37.216Z,81.60
2019-02-20T13:11:43.401Z,80.70
2019-02-20T13:16:49.474Z,81.20
2019-02-20T13:21:55.644Z,85.50
2019-02-20T13:27:07.662Z,86.50
2019-02-20T13:32:10.403Z,87.60
2019-02-20T13:37:16.529Z,88.50
2019-02-20T13:42:22.704Z,88.80
2019-02-20T13:47:28.753Z,88.50
2019-02-20T13:52:34.986Z,86.80
2019-02-20T13:57:41.368Z,86.00
2019-02-20T14:02:47.480Z,86.20
2019-02-20T14:07:53.697Z,86.80
2019-02-20T14:13:00.301Z,83.00
2019-02-20T14:18:06.413Z,80.60
2019-02-20T14:23:12.913Z,78.80
2019-02-20T14:28:30.605Z,78.30
2019-02-20T14:33:36.833Z,80.50
2019-02-20T14:38:43.327Z,79.20
2019-02-20T14:43:49.398Z,77.80
2019-02-20T14:48:55.511Z,80.40
2019-02-20T14:54:01.847Z,84.10
2019-02-20T14:59:08.094Z,83.10
2019-02-20T15:04:15.140Z,83.40
2019-02-20T15:09:21.499Z,83.60
2019-02-20T15:14:28.007Z,83.90
2019-02-20T15:19:33.978Z,85.00
2019-02-20T15:24:40.104Z,83.60
2019-02-20T15:29:46.716Z,82.20
2019-02-20T15:34:52.862Z,83.40
2019-02-20T15:39:59.061Z,84.40
2019-02-20T15:45:05.993Z,89.20
2019-02-20T15:50:12.593Z,90.20
2019-02-20T15:55:18.455Z,91.70
2019-02-20T16:00:25.640Z,92.60
2019-02-20T16:05:32.051Z,93.10
2019-02-20T16:10:38.203Z,93.60
2019-02-20T16:15:44.276Z,94.60
2019-02-20T16:20:50.259Z,95.10
2019-02-20T16:25:56.340Z,95.50
2019-02-20T16:31:02.461Z,95.70
2019-02-20T16:36:08.675Z,95.90
2019-02-20T16:41:15.457Z,96.40
2019-02-20T16:46:21.568Z,96.70
2019-02-20T16:51:27.664Z,97.20
2019-02-20T16:56:33.882Z,97.30
2019-02-20T17:01:40.053Z,97.40
2019-02-20T17:06:46.243Z,97.80
2019-02-20T17:11:52.330Z,97.70
2019-02-20T17:16:58.780Z,97.90
2019-02-20T17:22:05.027Z,98.10
2019-02-20T17:27:11.051Z,98.20
2019-02-20T17:32:17.054Z,98.40
2019-02-20T17:37:23.186Z,98.40
2019-02-20T17:42:29.392Z,98.50
2019-02-20T17:47:35.461Z,98.60
2019-02-20T17:52:41.958Z,98.90
2019-02-20T17:57:48.055Z,98.50
2019-02-20T18:02:53.918Z,98.70
2019-02-20T18:08:00.503Z,98.80
2019-02-20T18:13:06.639Z,98.80
2019-02-20T18:18:12.744Z,98.90
2019-02-20T18:23:18.752Z,99.50
2019-02-20T18:28:25.006Z,98.70
2019-02-20T18:33:31.241Z,98.90
2019-02-20T18:38:37.387Z,99.20
2019-02-20T18:43:43.431Z,99.10
2019-02-20T18:48:49.584Z,99.10
2019-02-20T18:53:55.719Z,99.20
2019-02-20T18:59:01.739Z,99.70
2019-02-20T19:04:08.152Z,99.40
2019-02-20T19:09:24.893Z,99.50
2019-02-20T19:14:57.353Z,99.60
2019-02-20T19:20:25.204Z,99.70
2019-02-20T19:25:54.965Z,99.80
2019-02-20T19:31:38.293Z,99.80
2019-02-20T19:37:34.085Z,99.90
2019-02-20T19:43:15.088Z,99.90
2019-02-20T19:48:55.583Z,99.90
2019-02-20T19:54:42.043Z,99.90
2019-02-20T20:00:32.343Z,99.90
2019-02-20T20:06:30.362Z,99.90
2019-02-20T20:12:00.651Z,99.90
2019-02-20T20:17:48.772Z,99.90
2019-02-20T20:23:16.686Z,99.90
2019-02-20T20:29:06.427Z,99.90
2019-02-20T20:35:20.646Z,99.90
2019-02-20T20:41:13.721Z,99.90
2019-02-20T20:46:59.392Z,99.90
2019-02-20T20:52:58.040Z,99.90
2019-02-20T20:58:33.136Z,99.90
2019-02-20T21:03:44.839Z,99.90
2019-02-20T21:09:30.496Z,99.90
2019-02-20T21:14:43.883Z,99.90
2019-02-20T21:20:10.167Z,99.90
2019-02-20T21:25:42.421Z,99.90
2019-02-20T21:31:30.362Z,99.90
2019-02-20T21:36:56.857Z,99.90
2019-02-20T21:42:29.235Z,99.90
2019-02-20T21:48:04.516Z,99.90
2019-02-20T21:53:31.441Z,99.90
2019-02-20T21:59:05.528Z,99.90
2019-02-20T22:05:07.911Z,99.90
2019-02-20T22:11:24.297Z,99.90
2019-02-20T22:17:07.534Z,99.90
2019-02-20T22:22:57.906Z,99.90
2019-02-20T22:28:28.500Z,99.90
2019-02-20T22:34:01.870Z,99.90
2019-02-20T22:39:36.872Z,99.90
2019-02-20T22:45:22.231Z,99.90
2019-02-20T22:51:14.855Z,99.90
2019-02-20T22:56:44.772Z,99.90
2019-02-20T23:02:20.400Z,99.90
2019-02-20T23:07:44.366Z,99.90
2019-02-20T23:13:31.627Z,99.90
2019-02-20T23:18:37.747Z,99.90
2019-02-20T23:23:43.974Z,99.90
2019-02-20T23:28:50.118Z,99.90
2019-02-20T23:33:56.187Z,99.90
2019-02-20T23:39:02.248Z,99.90
2019-02-20T23:44:10.197Z,99.90
2019-02-20T23:49:16.324Z,99.90
2019-02-20T23:54:23.397Z,99.90
2019-02-20T23:59:30.821Z,99.90
